createdAt,value
2018-02-27T00:01:12.207Z,12.43
2018-02-27T00:03:39.570Z,11.40
2018-02-27T00:06:06.944Z,8.48
2018-02-27T00:08:34.303Z,10.90
2018-02-27T00:11:01.691Z,11.77
2018-02-27T00:13:29.087Z,12.05
2018-02-27T00:15:56.440Z,12.10
2018-02-27T00:18:23.809Z,12.27
2018-02-27T00:20:51.156Z,10.77
2018-02-27T00:23:18.532Z,12.40
2018-02-27T00:25:45.871Z,12.60
2018-02-27T00:28:13.280Z,12.80
2018-02-27T00:30:40.746Z,11.45
2018-02-27T00:33:08.109Z,11.18
2018-02-27T00:35:35.472Z,10.80
2018-02-27T00:38:02.862Z,18.27
2018-02-27T00:40:30.228Z,14.60
2018-02-27T00:42:57.574Z,12.23
2018-02-27T00:45:24.939Z,12.73
2018-02-27T00:47:52.411Z,8.20
2018-02-27T00:50:19.791Z,12.10
2018-02-27T00:52:47.131Z,11.20
2018-02-27T00:55:14.608Z,12.10
2018-02-27T00:57:42.060Z,14.48
2018-02-27T01:00:09.468Z,12.23
2018-02-27T01:02:36.842Z,12.27
2018-02-27T01:05:04.221Z,14.40
2018-02-27T01:07:31.591Z,14.60
2018-02-27T01:09:59.033Z,14.05
2018-02-27T01:12:26.376Z,15.45
2018-02-27T01:14:53.744Z,10.68
2018-02-27T01:17:21.081Z,15.65
2018-02-27T01:19:48.440Z,15.40
2018-02-27T01:22:15.782Z,12.00
2018-02-27T01:24:43.264Z,13.32
2018-02-27T01:27:10.616Z,13.90
2018-02-27T01:29:37.979Z,9.70
2018-02-27T01:32:05.540Z,17.77
2018-02-27T01:34:32.954Z,13.88
2018-02-27T01:37:00.329Z,12.52
2018-02-27T01:39:27.666Z,12.23
2018-02-27T01:41:55.058Z,14.40
2018-02-27T01:44:22.431Z,15.35
2018-02-27T01:46:49.811Z,14.63
2018-02-27T01:49:17.149Z,12.75
2018-02-27T01:51:44.523Z,13.07
2018-02-27T01:54:11.927Z,13.90
2018-02-27T01:56:39.302Z,13.73
2018-02-27T01:59:06.683Z,14.65
2018-02-27T02:01:34.051Z,13.88
2018-02-27T02:04:01.390Z,14.60
2018-02-27T02:06:28.760Z,14.02
2018-02-27T02:08:56.159Z,14.77
2018-02-27T02:11:23.553Z,11.57
2018-02-27T02:13:50.898Z,12.00
2018-02-27T02:16:18.292Z,12.25
2018-02-27T02:18:45.633Z,12.60
2018-02-27T02:21:13.030Z,17.35
2018-02-27T02:23:40.383Z,10.85
2018-02-27T02:26:07.777Z,13.48
2018-02-27T02:28:35.143Z,14.85
2018-02-27T02:31:02.554Z,14.40
2018-02-27T02:33:29.920Z,11.98
2018-02-27T02:35:57.306Z,16.05
2018-02-27T02:38:24.720Z,12.82
2018-02-27T02:40:52.177Z,14.95
2018-02-27T02:43:19.553Z,13.98
2018-02-27T02:45:46.891Z,12.65
2018-02-27T02:48:14.305Z,12.07
2018-02-27T02:50:41.672Z,14.93
2018-02-27T02:53:09.156Z,18.05
2018-02-27T02:55:36.515Z,16.77
2018-02-27T02:58:03.877Z,14.90
2018-02-27T03:00:31.224Z,20.95
2018-02-27T03:02:58.650Z,14.65
2018-02-27T03:05:26.025Z,20.23
2018-02-27T03:07:53.489Z,12.50
2018-02-27T03:10:20.845Z,14.48
2018-02-27T03:12:48.217Z,14.40
2018-02-27T03:15:15.654Z,12.80
2018-02-27T03:17:43.008Z,11.52
2018-02-27T03:20:10.399Z,13.25
2018-02-27T03:22:37.750Z,12.95
2018-02-27T03:25:05.114Z,13.48
2018-02-27T03:27:32.457Z,13.75
2018-02-27T03:29:59.818Z,12.35
2018-02-27T03:32:27.238Z,14.85
2018-02-27T03:34:54.700Z,12.88
2018-02-27T03:37:22.034Z,13.70
2018-02-27T03:39:49.431Z,12.55
2018-02-27T03:42:16.777Z,14.82
2018-02-27T03:44:44.166Z,12.68
2018-02-27T03:47:11.516Z,13.20
2018-02-27T03:49:38.906Z,14.85
2018-02-27T03:52:06.247Z,14.05
2018-02-27T03:54:33.578Z,12.20
2018-02-27T03:57:00.945Z,15.00
2018-02-27T03:59:28.388Z,14.48
2018-02-27T04:01:55.764Z,14.68
2018-02-27T04:04:23.128Z,14.40
2018-02-27T04:06:50.487Z,12.68
2018-02-27T04:09:17.822Z,15.15
2018-02-27T04:11:45.219Z,14.98
2018-02-27T04:14:12.675Z,18.98
2018-02-27T04:16:40.056Z,26.45
2018-02-27T04:19:07.436Z,25.52
2018-02-27T04:21:34.808Z,24.45
2018-02-27T04:24:02.195Z,14.60
2018-02-27T04:26:29.660Z,17.55
2018-02-27T04:28:57.007Z,15.65
2018-02-27T04:31:24.372Z,15.27
2018-02-27T04:33:51.819Z,16.15
2018-02-27T04:36:19.199Z,15.63
2018-02-27T04:38:46.540Z,13.95
2018-02-27T04:41:13.917Z,16.30
2018-02-27T04:43:41.287Z,14.07
2018-02-27T04:46:08.694Z,16.52
2018-02-27T04:48:36.102Z,14.75
2018-02-27T04:51:03.426Z,18.70
2018-02-27T04:53:30.795Z,15.38
2018-02-27T04:55:58.141Z,14.98
2018-02-27T04:58:25.548Z,17.00
2018-02-27T05:00:52.924Z,17.23
2018-02-27T05:03:20.316Z,16.60
2018-02-27T05:05:47.650Z,18.23
2018-02-27T05:08:15.021Z,16.95
2018-02-27T05:10:42.379Z,14.77
2018-02-27T05:13:09.773Z,19.17
2018-02-27T05:15:37.126Z,21.35
2018-02-27T05:18:04.502Z,15.88
2018-02-27T05:20:31.862Z,13.32
2018-02-27T05:22:59.320Z,17.05
2018-02-27T05:25:26.664Z,15.15
2018-02-27T05:27:54.037Z,13.60
2018-02-27T05:30:21.383Z,16.15
2018-02-27T05:32:48.843Z,15.70
2018-02-27T05:35:16.360Z,13.13
2018-02-27T05:37:43.715Z,14.68
2018-02-27T05:40:11.073Z,15.13
2018-02-27T05:42:38.480Z,18.00
2018-02-27T05:45:05.862Z,17.45
2018-02-27T05:47:33.201Z,14.43
2018-02-27T05:50:00.567Z,14.85
2018-02-27T05:52:27.921Z,14.43
2018-02-27T05:54:55.283Z,14.30
2018-02-27T05:57:22.623Z,15.13
2018-02-27T05:59:50.024Z,13.60
2018-02-27T06:02:17.380Z,17.55
2018-02-27T06:04:44.749Z,13.43
2018-02-27T06:07:12.093Z,17.90
2018-02-27T06:09:39.486Z,14.57
2018-02-27T06:12:06.823Z,16.95
2018-02-27T06:14:34.191Z,12.98
2018-02-27T06:17:01.525Z,11.70
2018-02-27T06:19:28.987Z,12.70
2018-02-27T06:21:56.328Z,13.68
2018-02-27T06:24:23.713Z,13.95
2018-02-27T06:26:51.048Z,14.27
2018-02-27T06:29:18.418Z,15.38
2018-02-27T06:31:45.758Z,13.57
2018-02-27T06:34:13.146Z,18.02
2018-02-27T06:36:40.511Z,15.50
2018-02-27T06:39:07.927Z,14.27
2018-02-27T06:41:35.282Z,17.77
2018-02-27T06:44:02.652Z,19.48
2018-02-27T06:46:30.001Z,20.52
2018-02-27T06:48:57.374Z,18.87
2018-02-27T06:51:24.734Z,18.15
2018-02-27T06:53:52.109Z,15.13
2018-02-27T06:56:19.461Z,32.85
2018-02-27T06:58:46.867Z,19.35
2018-02-27T07:01:14.218Z,15.30
2018-02-27T07:03:41.585Z,14.87
2018-02-27T07:06:08.923Z,14.20
2018-02-27T07:08:36.282Z,15.88
2018-02-27T07:11:03.621Z,25.23
2018-02-27T07:13:31.008Z,55.53
2018-02-27T07:15:58.404Z,32.03
2018-02-27T07:18:25.768Z,21.48
2018-02-27T07:20:53.142Z,17.00
2018-02-27T07:23:20.488Z,13.20
2018-02-27T07:25:47.863Z,15.25
2018-02-27T07:28:15.198Z,13.88
2018-02-27T07:30:42.566Z,17.87
2018-02-27T07:33:09.923Z,16.77
2018-02-27T07:35:37.288Z,17.60
2018-02-27T07:38:04.635Z,18.42
2018-02-27T07:40:32.022Z,16.20
2018-02-27T07:42:59.383Z,16.37
2018-02-27T07:45:26.745Z,15.00
2018-02-27T07:47:54.099Z,18.83
2018-02-27T07:50:21.459Z,17.60
2018-02-27T07:52:48.802Z,16.45
2018-02-27T07:55:16.187Z,21.55
2018-02-27T07:57:43.533Z,18.95
2018-02-27T08:00:10.932Z,18.87
2018-02-27T08:02:38.390Z,17.37
2018-02-27T08:05:05.746Z,15.32
2018-02-27T08:07:33.076Z,13.45
2018-02-27T08:10:00.447Z,18.50
2018-02-27T08:12:27.782Z,16.67
2018-02-27T08:14:55.150Z,20.20
2018-02-27T08:17:22.620Z,18.00
2018-02-27T08:19:50.009Z,19.25
2018-02-27T08:22:17.356Z,23.02
2018-02-27T08:24:44.731Z,17.62
2018-02-27T08:27:12.124Z,21.15
2018-02-27T08:29:39.491Z,17.45
2018-02-27T08:32:06.886Z,17.40
2018-02-27T08:34:34.262Z,21.40
2018-02-27T08:37:01.646Z,20.62
2018-02-27T08:39:29.006Z,26.60
2018-02-27T08:41:56.351Z,17.85
2018-02-27T08:44:23.744Z,24.25
2018-02-27T08:46:51.086Z,22.58
2018-02-27T08:49:18.448Z,20.60
2018-02-27T08:51:45.867Z,19.80
2018-02-27T08:54:13.219Z,23.98
2018-02-27T08:56:40.591Z,32.85
2018-02-27T08:59:07.947Z,23.15
2018-02-27T09:01:35.319Z,26.90
2018-02-27T09:04:02.670Z,19.52
2018-02-27T09:06:30.033Z,21.00
2018-02-27T09:08:57.376Z,19.10
2018-02-27T09:11:24.742Z,31.35
2018-02-27T09:13:52.086Z,25.40
2018-02-27T09:16:19.460Z,23.00
2018-02-27T09:18:46.806Z,25.80
2018-02-27T09:21:14.203Z,25.35
2018-02-27T09:23:41.547Z,26.87
2018-02-27T09:26:08.928Z,19.52
2018-02-27T09:28:36.288Z,24.45
2018-02-27T09:31:03.656Z,23.62
2018-02-27T09:33:31.036Z,21.77
2018-02-27T09:35:58.403Z,21.87
2018-02-27T09:38:25.761Z,23.70
2018-02-27T09:40:53.136Z,17.23
2018-02-27T09:43:20.541Z,28.62
2018-02-27T09:45:47.919Z,62.60
2018-02-27T09:48:15.320Z,25.20
2018-02-27T09:50:42.697Z,28.42
2018-02-27T09:53:10.048Z,26.65
2018-02-27T09:55:37.421Z,26.27
2018-02-27T09:58:04.813Z,26.00
2018-02-27T10:00:32.154Z,24.95
2018-02-27T10:02:59.507Z,25.60
2018-02-27T10:05:26.875Z,26.77
2018-02-27T10:07:54.248Z,24.37
2018-02-27T10:10:21.612Z,19.62
2018-02-27T10:12:48.955Z,31.10
2018-02-27T10:15:16.341Z,27.05
2018-02-27T10:17:43.682Z,27.67
2018-02-27T10:20:11.031Z,27.95
2018-02-27T10:22:38.403Z,24.42
2018-02-27T10:25:05.762Z,25.33
2018-02-27T10:27:33.189Z,27.00
2018-02-27T10:30:00.508Z,27.10
2018-02-27T10:32:27.885Z,27.10
2018-02-27T10:34:55.243Z,25.83
2018-02-27T10:37:22.610Z,30.35
2018-02-27T10:39:49.952Z,31.33
2018-02-27T10:42:17.459Z,27.40
2018-02-27T10:44:44.803Z,25.50
2018-02-27T10:47:12.270Z,30.77
2018-02-27T10:49:39.630Z,26.65
2018-02-27T10:52:07.023Z,33.42
2018-02-27T10:54:34.372Z,27.85
2018-02-27T10:57:01.747Z,21.27
2018-02-27T10:59:29.117Z,27.15
2018-02-27T11:01:56.506Z,35.08
2018-02-27T11:04:23.846Z,29.00
2018-02-27T11:06:51.199Z,28.75
2018-02-27T11:09:18.668Z,29.10
2018-02-27T11:11:46.015Z,29.33
2018-02-27T11:14:13.387Z,27.15
2018-02-27T11:16:40.736Z,33.45
2018-02-27T11:19:08.107Z,32.75
2018-02-27T11:21:35.452Z,46.95
2018-02-27T11:24:02.830Z,30.25
2018-02-27T11:26:30.199Z,31.87
2018-02-27T11:28:57.574Z,24.42
2018-02-27T11:31:24.935Z,29.25
2018-02-27T11:33:52.314Z,32.15
2018-02-27T11:36:19.733Z,29.58
2018-02-27T11:38:47.050Z,27.48
2018-02-27T11:41:14.422Z,33.33
2018-02-27T11:43:41.798Z,31.87
2018-02-27T11:46:09.291Z,28.23
2018-02-27T11:48:36.639Z,37.22
2018-02-27T11:51:03.982Z,34.88
2018-02-27T11:53:31.364Z,32.50
2018-02-27T11:55:58.811Z,34.47
2018-02-27T11:58:26.184Z,35.92
2018-02-27T12:00:53.546Z,34.17
2018-02-27T12:03:20.917Z,36.97
2018-02-27T12:05:48.258Z,30.10
2018-02-27T12:08:15.712Z,33.88
2018-02-27T12:10:43.047Z,32.95
2018-02-27T12:13:10.442Z,27.95
2018-02-27T12:15:37.808Z,27.87
2018-02-27T12:18:05.150Z,29.63
2018-02-27T12:20:32.526Z,30.98
2018-02-27T12:22:59.874Z,29.40
2018-02-27T12:25:27.263Z,26.45
2018-02-27T12:27:54.626Z,39.75
2018-02-27T12:30:22.085Z,33.75
2018-02-27T12:32:49.429Z,32.38
2018-02-27T12:35:16.803Z,34.35
2018-02-27T12:37:44.138Z,26.23
2018-02-27T12:40:11.499Z,25.50
2018-02-27T12:42:38.885Z,28.92
2018-02-27T12:45:06.236Z,26.48
2018-02-27T12:47:33.627Z,26.98
2018-02-27T12:50:00.984Z,26.40
2018-02-27T12:52:28.371Z,28.58
2018-02-27T12:54:55.710Z,30.08
2018-02-27T12:57:23.102Z,34.60
2018-02-27T12:59:50.442Z,33.90
2018-02-27T13:02:17.781Z,24.25
2018-02-27T13:04:45.151Z,34.67
2018-02-27T13:07:12.490Z,78.22
2018-02-27T13:09:39.862Z,112.62
2018-02-27T13:12:07.225Z,37.15
2018-02-27T13:14:34.613Z,34.58
2018-02-27T13:17:01.970Z,31.73
2018-02-27T13:19:29.339Z,36.50
2018-02-27T13:21:56.685Z,46.33
2018-02-27T13:24:24.073Z,31.83
2018-02-27T13:26:51.423Z,32.50
2018-02-27T13:29:18.766Z,40.67
2018-02-27T13:31:46.133Z,31.77
2018-02-27T13:34:13.482Z,30.02
2018-02-27T13:36:40.854Z,35.10
2018-02-27T13:39:08.215Z,40.05
2018-02-27T13:41:35.615Z,32.92
2018-02-27T13:44:02.960Z,32.58
2018-02-27T13:46:30.332Z,37.85
2018-02-27T13:49:04.000Z,32.17
2018-02-27T13:51:25.102Z,32.15
2018-02-27T13:53:52.469Z,31.70
2018-02-27T13:56:19.858Z,36.58
2018-02-27T13:58:47.208Z,31.37
2018-02-27T14:01:14.550Z,25.77
2018-02-27T14:03:41.925Z,38.00
2018-02-27T14:06:09.273Z,35.72
2018-02-27T14:08:36.646Z,36.90
2018-02-27T14:11:03.981Z,31.87
2018-02-27T14:13:31.358Z,34.80
2018-02-27T14:15:58.720Z,29.17
2018-02-27T14:18:26.103Z,34.97
2018-02-27T14:20:53.458Z,28.42
2018-02-27T14:23:20.874Z,31.95
2018-02-27T14:25:48.252Z,28.90
2018-02-27T14:28:15.609Z,40.05
2018-02-27T14:30:43.015Z,28.25
2018-02-27T14:33:10.359Z,28.08
2018-02-27T14:35:37.736Z,32.60
2018-02-27T14:38:05.080Z,35.92
2018-02-27T14:40:32.492Z,28.80
2018-02-27T14:42:59.843Z,26.70
2018-02-27T14:45:27.299Z,29.92
2018-02-27T14:47:54.650Z,31.45
2018-02-27T14:50:22.162Z,30.23
2018-02-27T14:52:49.539Z,29.98
2018-02-27T14:55:16.930Z,29.27
2018-02-27T14:57:44.318Z,33.55
2018-02-27T15:00:11.687Z,30.80
2018-02-27T15:02:39.071Z,31.90
2018-02-27T15:05:06.430Z,29.33
2018-02-27T15:07:33.807Z,37.25
2018-02-27T15:10:01.162Z,33.00
2018-02-27T15:12:28.560Z,27.35
2018-02-27T15:14:55.907Z,32.40
2018-02-27T15:17:23.252Z,30.12
2018-02-27T15:19:50.623Z,32.28
2018-02-27T15:22:17.976Z,30.27
2018-02-27T15:24:45.368Z,27.10
2018-02-27T15:27:12.726Z,28.58
2018-02-27T15:29:40.096Z,27.40
2018-02-27T15:32:07.465Z,24.52
2018-02-27T15:34:34.863Z,32.80
2018-02-27T15:37:02.222Z,29.45
2018-02-27T15:39:29.586Z,27.00
2018-02-27T15:41:56.940Z,25.95
2018-02-27T15:44:24.423Z,22.87
2018-02-27T15:46:51.776Z,32.42
2018-02-27T15:49:19.122Z,27.52
2018-02-27T15:51:46.506Z,26.35
2018-02-27T15:54:13.860Z,24.25
2018-02-27T15:56:41.240Z,23.15
2018-02-27T15:59:08.642Z,26.65
2018-02-27T16:01:36.211Z,25.70
2018-02-27T16:04:03.568Z,22.30
2018-02-27T16:06:30.963Z,28.42
2018-02-27T16:08:58.306Z,39.92
2018-02-27T16:11:25.677Z,39.40
2018-02-27T16:13:53.024Z,26.52
2018-02-27T16:16:20.404Z,27.35
2018-02-27T16:18:47.753Z,26.00
2018-02-27T16:21:15.097Z,26.55
2018-02-27T16:23:42.517Z,29.75
2018-02-27T16:26:09.871Z,26.25
2018-02-27T16:28:37.251Z,25.52
2018-02-27T16:31:04.603Z,22.65
2018-02-27T16:33:35.791Z,25.15
2018-02-27T16:36:03.147Z,22.17
2018-02-27T16:38:30.551Z,28.87
2018-02-27T16:40:57.898Z,25.25
2018-02-27T16:43:25.300Z,24.00
2018-02-27T16:45:52.643Z,24.85
2018-02-27T16:48:20.057Z,23.77
2018-02-27T16:50:47.451Z,25.60
2018-02-27T16:53:14.817Z,25.25
2018-02-27T16:55:42.194Z,22.00
2018-02-27T16:58:09.541Z,30.65
2018-02-27T17:00:36.937Z,22.90
2018-02-27T17:03:04.283Z,25.37
2018-02-27T17:05:31.659Z,29.05
2018-02-27T17:07:59.004Z,27.20
2018-02-27T17:10:26.383Z,31.55
2018-02-27T17:12:53.725Z,28.20
2018-02-27T17:15:21.101Z,28.23
2018-02-27T17:17:48.451Z,26.58
2018-02-27T17:20:15.834Z,26.40
2018-02-27T17:22:43.242Z,29.30
2018-02-27T17:25:10.575Z,24.08
2018-02-27T17:27:37.916Z,26.80
2018-02-27T17:30:05.293Z,23.95
2018-02-27T17:32:32.652Z,33.40
2018-02-27T17:35:00.025Z,27.60
2018-02-27T17:37:27.378Z,32.28
2018-02-27T17:39:54.752Z,24.73
2018-02-27T17:42:22.098Z,28.33
2018-02-27T17:44:49.474Z,26.85
2018-02-27T17:47:16.818Z,26.45
2018-02-27T17:49:44.188Z,29.40
2018-02-27T17:52:11.531Z,29.80
2018-02-27T17:54:38.880Z,30.25
2018-02-27T17:57:06.255Z,27.73
2018-02-27T17:59:33.976Z,28.35
2018-02-27T18:02:01.516Z,26.10
2018-02-27T18:04:28.962Z,35.28
2018-02-27T18:06:56.340Z,27.55
2018-02-27T18:09:23.681Z,27.13
2018-02-27T18:11:53.004Z,29.87
2018-02-27T18:14:20.862Z,32.38
2018-02-27T18:16:50.046Z,39.00
2018-02-27T18:19:17.403Z,46.92
2018-02-27T18:21:44.780Z,36.33
2018-02-27T18:24:12.653Z,32.08
2018-02-27T18:26:40.035Z,44.70
2018-02-27T18:29:09.210Z,37.03
2018-02-27T18:31:36.588Z,25.62
2018-02-27T18:34:06.189Z,37.03
2018-02-27T18:36:33.660Z,35.08
2018-02-27T18:39:01.006Z,34.00
2018-02-27T18:41:28.400Z,30.20
2018-02-27T18:43:55.920Z,35.75
2018-02-27T18:46:23.187Z,28.50
2018-02-27T18:48:50.531Z,31.52
2018-02-27T18:51:17.910Z,31.45
2018-02-27T18:53:45.263Z,32.28
2018-02-27T18:56:12.650Z,32.17
2018-02-27T18:58:40.001Z,39.47
2018-02-27T19:01:07.410Z,31.87
2018-02-27T19:03:34.759Z,33.47
2018-02-27T19:06:02.134Z,34.33
2018-02-27T19:08:29.526Z,36.17
2018-02-27T19:10:56.866Z,35.67
2018-02-27T19:13:24.307Z,34.08
2018-02-27T19:15:51.664Z,38.13
2018-02-27T19:18:19.041Z,40.53
2018-02-27T19:20:46.392Z,45.50
2018-02-27T19:23:13.811Z,35.78
2018-02-27T19:25:41.193Z,37.03
2018-02-27T19:28:08.590Z,33.35
2018-02-27T19:30:35.943Z,39.35
2018-02-27T19:33:03.336Z,44.60
2018-02-27T19:35:30.905Z,43.03
2018-02-27T19:37:58.302Z,41.42
2018-02-27T19:40:25.693Z,43.70
2018-02-27T19:42:53.083Z,37.03
2018-02-27T19:45:20.451Z,39.70
2018-02-27T19:47:50.192Z,44.50
2018-02-27T19:50:17.529Z,38.95
2018-02-27T19:52:44.912Z,38.13
2018-02-27T19:55:12.260Z,43.85
2018-02-27T19:57:39.670Z,41.67
2018-02-27T20:00:07.239Z,39.10
2018-02-27T20:02:34.606Z,40.63
2018-02-27T20:05:02.010Z,44.10
2018-02-27T20:07:29.379Z,41.15
2018-02-27T20:09:56.844Z,44.15
2018-02-27T20:12:24.194Z,47.53
2018-02-27T20:14:51.595Z,50.35
2018-02-27T20:17:18.943Z,44.55
2018-02-27T20:19:46.513Z,40.08
2018-02-27T20:22:13.877Z,38.45
2018-02-27T20:24:41.582Z,43.67
2018-02-27T20:27:09.048Z,37.90
2018-02-27T20:29:36.834Z,33.95
2018-02-27T20:32:04.362Z,35.10
2018-02-27T20:34:32.505Z,34.88
2018-02-27T20:37:00.881Z,40.05
2018-02-27T20:39:28.262Z,32.22
2018-02-27T20:41:55.603Z,36.63
2018-02-27T20:44:22.970Z,34.25
2018-02-27T20:46:50.324Z,48.92
2018-02-27T20:49:17.710Z,42.58
2018-02-27T20:51:45.052Z,40.45
2018-02-27T20:54:12.425Z,33.88
2018-02-27T20:56:39.782Z,38.10
2018-02-27T20:59:07.155Z,34.22
2018-02-27T21:01:34.510Z,41.88
2018-02-27T21:04:01.886Z,43.08
2018-02-27T21:06:29.247Z,38.22
2018-02-27T21:08:56.911Z,36.70
2018-02-27T21:11:24.256Z,38.33
2018-02-27T21:13:51.636Z,37.28
2018-02-27T21:16:18.991Z,37.58
2018-02-27T21:18:46.368Z,36.22
2018-02-27T21:21:13.713Z,35.40
2018-02-27T21:23:41.086Z,34.80
2018-02-27T21:26:08.577Z,33.95
2018-02-27T21:28:36.006Z,31.85
2018-02-27T21:31:03.355Z,33.03
2018-02-27T21:33:30.924Z,32.80
2018-02-27T21:35:58.274Z,33.55
2018-02-27T21:38:25.631Z,33.97
2018-02-27T21:40:53.006Z,29.95
2018-02-27T21:43:20.362Z,35.42
2018-02-27T21:45:47.970Z,37.88
2018-02-27T21:48:15.318Z,33.72
2018-02-27T21:50:42.687Z,32.40
2018-02-27T21:53:10.040Z,34.03
2018-02-27T21:55:37.473Z,37.78
2018-02-27T21:58:04.804Z,30.45
2018-02-27T22:00:32.183Z,37.50
2018-02-27T22:02:59.533Z,34.15
2018-02-27T22:05:27.016Z,39.22
2018-02-27T22:07:54.368Z,36.65
2018-02-27T22:10:21.744Z,32.90
2018-02-27T22:12:49.094Z,39.28
2018-02-27T22:15:16.500Z,41.97
2018-02-27T22:17:43.866Z,41.83
2018-02-27T22:20:11.267Z,43.63
2018-02-27T22:22:39.193Z,39.42
2018-02-27T22:25:06.647Z,40.75
2018-02-27T22:27:34.003Z,40.05
2018-02-27T22:30:01.570Z,40.45
2018-02-27T22:32:28.941Z,43.78
2018-02-27T22:34:56.321Z,41.60
2018-02-27T22:37:23.672Z,41.15
2018-02-27T22:39:51.054Z,42.25
2018-02-27T22:42:18.402Z,41.55
2018-02-27T22:44:45.779Z,42.30
2018-02-27T22:47:13.127Z,41.45
2018-02-27T22:49:40.504Z,49.67
2018-02-27T22:52:07.848Z,50.78
2018-02-27T22:54:35.231Z,42.05
2018-02-27T22:57:02.580Z,50.22
2018-02-27T22:59:29.951Z,47.72
2018-02-27T23:01:57.308Z,52.70
2018-02-27T23:04:24.701Z,43.78
2018-02-27T23:06:52.049Z,48.47
2018-02-27T23:09:19.388Z,43.63
2018-02-27T23:11:46.767Z,46.78
2018-02-27T23:14:14.117Z,46.58
2018-02-27T23:16:41.487Z,44.45
2018-02-27T23:19:08.832Z,47.83
2018-02-27T23:21:36.210Z,50.55
2018-02-27T23:24:05.829Z,46.55
2018-02-27T23:26:33.605Z,46.85
2018-02-27T23:29:02.796Z,44.25
2018-02-27T23:31:30.477Z,46.65
2018-02-27T23:33:58.730Z,45.40
2018-02-27T23:36:26.102Z,39.85
2018-02-27T23:38:53.442Z,42.80
2018-02-27T23:41:20.820Z,44.97
2018-02-27T23:43:48.163Z,42.53
2018-02-27T23:46:15.542Z,41.78
2018-02-27T23:48:42.882Z,44.58
2018-02-27T23:51:10.263Z,40.60
2018-02-27T23:53:37.609Z,40.75
2018-02-27T23:56:04.984Z,41.90
2018-02-27T23:58:32.358Z,42.67
